createdAt,value
2023-01-10T00:01:47.044Z,5.50
2023-01-10T00:04:14.002Z,5.50
2023-01-10T00:06:40.931Z,5.50
2023-01-10T00:09:07.796Z,5.50
2023-01-10T00:11:53.272Z,5.50
2023-01-10T00:14:20.189Z,5.40
2023-01-10T00:16:47.166Z,5.40
2023-01-10T00:19:13.924Z,5.40
2023-01-10T00:21:40.797Z,5.40
2023-01-10T00:24:18.804Z,5.40
2023-01-10T00:26:53.815Z,5.40
2023-01-10T00:29:24.088Z,5.40
2023-01-10T00:31:51.048Z,5.40
2023-01-10T00:34:17.881Z,5.40
2023-01-10T00:36:47.413Z,5.40
2023-01-10T00:39:15.925Z,5.40
2023-01-10T00:42:01.269Z,5.40
2023-01-10T00:44:28.028Z,5.40
2023-01-10T00:46:55.265Z,5.40
2023-01-10T00:49:22.149Z,5.30
2023-01-10T00:51:49.017Z,5.30
2023-01-10T00:54:15.792Z,5.30
2023-01-10T00:56:42.629Z,5.40
2023-01-10T00:59:09.540Z,5.30
2023-01-10T01:01:36.957Z,5.30
2023-01-10T01:04:03.946Z,5.30
2023-01-10T01:06:30.811Z,5.30
2023-01-10T01:08:57.655Z,5.30
2023-01-10T01:11:25.693Z,5.30
2023-01-10T01:13:52.746Z,5.30
2023-01-10T01:16:19.631Z,5.30
2023-01-10T01:18:46.430Z,5.30
2023-01-10T01:21:13.219Z,5.30
2023-01-10T01:23:40.034Z,5.30
2023-01-10T01:26:06.915Z,5.30
2023-01-10T01:28:33.882Z,5.20
2023-01-10T01:31:07.502Z,5.20
2023-01-10T01:33:34.525Z,5.20
2023-01-10T01:36:01.343Z,5.10
2023-01-10T01:38:28.078Z,5.10
2023-01-10T01:40:54.865Z,5.10
2023-01-10T01:43:27.186Z,5.10
2023-01-10T01:45:54.976Z,5.10
2023-01-10T01:48:30.853Z,5.00
2023-01-10T01:51:10.736Z,5.00
2023-01-10T01:53:54.484Z,5.00
2023-01-10T01:56:36.154Z,5.00
2023-01-10T01:59:08.813Z,5.00
2023-01-10T02:01:37.683Z,5.00
2023-01-10T02:04:13.352Z,5.00
2023-01-10T02:06:41.302Z,5.00
2023-01-10T02:09:22.443Z,5.00
2023-01-10T02:11:49.518Z,5.00
2023-01-10T02:14:17.198Z,5.00
2023-01-10T02:16:43.973Z,5.00
2023-01-10T02:19:55.088Z,5.00
2023-01-10T02:22:43.540Z,5.00
2023-01-10T02:25:22.380Z,5.00
2023-01-10T02:27:58.292Z,4.90
2023-01-10T02:30:42.675Z,4.90
2023-01-10T02:33:09.443Z,4.90
2023-01-10T02:35:58.054Z,4.90
2023-01-10T02:38:38.732Z,4.90
2023-01-10T02:41:36.854Z,4.90
2023-01-10T02:44:12.087Z,4.90
2023-01-10T02:46:40.710Z,4.90
2023-01-10T02:49:07.572Z,4.90
2023-01-10T02:51:34.340Z,4.90
2023-01-10T02:54:10.789Z,4.90
2023-01-10T02:57:37.246Z,4.90
2023-01-10T03:00:15.329Z,4.90
2023-01-10T03:02:57.330Z,4.90
2023-01-10T03:05:40.391Z,4.90
2023-01-10T03:08:58.371Z,4.90
2023-01-10T03:11:41.269Z,5.00
2023-01-10T03:14:15.026Z,5.00
2023-01-10T03:16:47.849Z,5.00
2023-01-10T03:19:21.130Z,4.90
2023-01-10T03:21:52.653Z,4.90
2023-01-10T03:24:31.164Z,4.90
2023-01-10T03:27:08.866Z,4.90
2023-01-10T03:29:46.828Z,4.90
2023-01-10T03:32:17.355Z,4.90
2023-01-10T03:34:44.773Z,4.90
2023-01-10T03:37:36.837Z,4.90
2023-01-10T03:40:20.482Z,5.00
2023-01-10T03:43:19.382Z,5.00
2023-01-10T03:45:57.450Z,5.00
2023-01-10T03:48:28.498Z,5.00
2023-01-10T03:50:57.552Z,5.00
2023-01-10T03:53:24.670Z,5.00
2023-01-10T03:55:51.800Z,5.00
2023-01-10T03:58:21.816Z,5.00
2023-01-10T04:00:49.466Z,5.00
2023-01-10T04:03:16.991Z,5.00
2023-01-10T04:05:43.809Z,4.90
2023-01-10T04:08:10.938Z,4.90
2023-01-10T04:10:38.124Z,4.90
2023-01-10T04:13:05.448Z,4.80
2023-01-10T04:15:32.724Z,4.90
2023-01-10T04:17:59.577Z,4.80
2023-01-10T04:20:29.418Z,4.80
2023-01-10T04:22:56.322Z,4.90
2023-01-10T04:25:23.661Z,4.80
2023-01-10T04:27:51.802Z,4.80
2023-01-10T04:30:19.345Z,4.80
2023-01-10T04:32:47.533Z,4.80
2023-01-10T04:35:14.533Z,4.80
2023-01-10T04:37:41.687Z,4.70
2023-01-10T04:40:09.316Z,4.70
2023-01-10T04:42:36.174Z,4.70
2023-01-10T04:45:03.314Z,4.60
2023-01-10T04:47:30.313Z,4.60
2023-01-10T04:49:57.370Z,4.70
2023-01-10T04:52:26.094Z,4.60
2023-01-10T04:54:53.015Z,4.60
2023-01-10T04:57:19.770Z,4.60
2023-01-10T04:59:46.607Z,4.60
2023-01-10T05:02:13.463Z,4.60
2023-01-10T05:04:40.512Z,4.60
2023-01-10T05:07:07.273Z,4.60
2023-01-10T05:09:34.012Z,4.60
2023-01-10T05:12:00.766Z,4.60
2023-01-10T05:14:27.496Z,4.60
2023-01-10T05:16:54.404Z,4.60
2023-01-10T05:19:21.201Z,4.60
2023-01-10T05:21:48.047Z,4.60
2023-01-10T05:24:14.873Z,4.60
2023-01-10T05:26:41.693Z,4.70
2023-01-10T05:29:14.523Z,4.60
2023-01-10T05:31:41.675Z,4.70
2023-01-10T05:34:14.377Z,4.70
2023-01-10T05:36:41.140Z,4.70
2023-01-10T05:39:08.026Z,4.70
2023-01-10T05:41:34.804Z,4.70
2023-01-10T05:44:01.645Z,4.70
2023-01-10T05:46:28.454Z,4.70
2023-01-10T05:48:55.273Z,4.70
2023-01-10T05:51:22.101Z,4.70
2023-01-10T05:53:50.287Z,4.80
2023-01-10T05:56:17.267Z,4.80
2023-01-10T05:58:47.261Z,4.80
2023-01-10T06:01:16.206Z,4.80
2023-01-10T06:03:43.064Z,4.80
2023-01-10T06:06:10.085Z,4.80
2023-01-10T06:08:37.240Z,4.80
2023-01-10T06:11:05.105Z,4.80
2023-01-10T06:13:32.206Z,4.70
2023-01-10T06:15:59.412Z,4.70
2023-01-10T06:18:26.487Z,4.70
2023-01-10T06:20:54.045Z,4.60
2023-01-10T06:23:21.700Z,4.60
2023-01-10T06:25:48.504Z,4.50
2023-01-10T06:28:15.583Z,4.50
2023-01-10T06:30:43.545Z,4.50
2023-01-10T06:33:11.437Z,4.50
2023-01-10T06:35:39.116Z,4.50
2023-01-10T06:38:05.904Z,4.60
2023-01-10T06:40:32.905Z,4.60
2023-01-10T06:42:59.734Z,4.60
2023-01-10T06:45:26.478Z,4.60
2023-01-10T06:47:53.261Z,4.60
2023-01-10T06:50:20.227Z,4.60
2023-01-10T06:52:47.065Z,4.60
2023-01-10T06:55:13.899Z,4.60
2023-01-10T06:57:40.702Z,4.60
2023-01-10T07:00:08.963Z,4.60
2023-01-10T07:02:35.747Z,4.70
2023-01-10T07:05:02.548Z,4.70
2023-01-10T07:07:29.396Z,4.70
2023-01-10T07:09:56.243Z,4.70
2023-01-10T07:12:23.040Z,4.70
2023-01-10T07:14:49.828Z,4.70
2023-01-10T07:17:16.630Z,4.70
2023-01-10T07:19:43.564Z,4.70
2023-01-10T07:22:11.352Z,4.70
2023-01-10T07:24:38.143Z,4.70
2023-01-10T07:27:04.999Z,4.70
2023-01-10T07:29:31.768Z,4.70
2023-01-10T07:31:58.637Z,4.80
2023-01-10T07:34:25.374Z,4.80
2023-01-10T07:36:52.123Z,4.80
2023-01-10T07:39:18.877Z,4.80
2023-01-10T07:41:48.665Z,4.80
2023-01-10T07:44:16.206Z,4.80
2023-01-10T07:46:43.216Z,4.80
2023-01-10T07:49:10.184Z,4.80
2023-01-10T07:51:36.955Z,4.80
2023-01-10T07:54:04.123Z,4.80
2023-01-10T07:56:31.057Z,4.80
2023-01-10T07:58:57.850Z,4.80
2023-01-10T08:01:26.130Z,4.90
2023-01-10T08:03:53.033Z,4.80
2023-01-10T08:06:19.878Z,4.90
2023-01-10T08:08:46.608Z,4.90
2023-01-10T08:11:13.430Z,4.90
2023-01-10T08:13:40.315Z,4.90
2023-01-10T08:16:08.472Z,4.90
2023-01-10T08:18:35.958Z,4.90
2023-01-10T08:21:02.812Z,5.00
2023-01-10T08:23:30.179Z,5.00
2023-01-10T08:25:58.920Z,5.00
2023-01-10T08:28:25.812Z,5.10
2023-01-10T08:30:55.635Z,5.10
2023-01-10T08:33:24.628Z,5.10
2023-01-10T08:35:51.880Z,5.10
2023-01-10T08:38:18.767Z,5.20
2023-01-10T08:40:45.597Z,5.20
2023-01-10T08:43:12.949Z,5.20
2023-01-10T08:45:39.996Z,5.20
2023-01-10T08:48:09.269Z,5.20
2023-01-10T08:50:36.180Z,5.30
2023-01-10T08:53:03.028Z,5.30
2023-01-10T08:55:31.224Z,5.30
2023-01-10T08:58:02.096Z,5.30
2023-01-10T09:00:29.442Z,5.30
2023-01-10T09:02:56.339Z,5.30
2023-01-10T09:05:27.379Z,5.30
2023-01-10T09:08:00.208Z,5.30
2023-01-10T09:10:28.347Z,5.30
2023-01-10T09:12:55.775Z,5.30
2023-01-10T09:15:30.827Z,5.30
2023-01-10T09:17:59.953Z,5.30
2023-01-10T09:20:29.011Z,5.30
2023-01-10T09:22:57.029Z,5.30
2023-01-10T09:25:24.851Z,5.30
2023-01-10T09:27:58.963Z,5.20
2023-01-10T09:30:26.813Z,5.30
2023-01-10T09:32:55.349Z,5.30
2023-01-10T09:35:24.264Z,5.20
2023-01-10T09:37:55.065Z,5.30
2023-01-10T09:40:42.640Z,5.30
2023-01-10T09:43:27.529Z,5.30
2023-01-10T09:46:09.789Z,5.30
2023-01-10T09:48:40.897Z,5.30
2023-01-10T09:51:37.063Z,5.30
2023-01-10T09:54:12.183Z,5.30
2023-01-10T09:56:40.737Z,5.40
2023-01-10T09:59:18.545Z,5.40
2023-01-10T10:01:48.581Z,5.40
2023-01-10T10:04:15.373Z,5.50
2023-01-10T10:06:42.750Z,5.50
2023-01-10T10:09:15.411Z,5.50
2023-01-10T10:11:55.857Z,5.50
2023-01-10T10:14:53.284Z,5.60
2023-01-10T10:17:35.244Z,5.60
2023-01-10T10:20:16.786Z,5.60
2023-01-10T10:23:11.381Z,5.60
2023-01-10T10:26:11.542Z,5.70
2023-01-10T10:29:15.607Z,5.70
2023-01-10T10:31:59.127Z,5.70
2023-01-10T10:34:40.281Z,5.80
2023-01-10T10:37:32.871Z,5.80
2023-01-10T10:40:16.639Z,5.80
2023-01-10T10:42:50.542Z,5.90
2023-01-10T10:45:35.277Z,5.80
2023-01-10T10:48:25.597Z,5.90
2023-01-10T10:51:30.699Z,5.90
2023-01-10T10:53:58.357Z,5.90
2023-01-10T10:56:26.939Z,5.90
2023-01-10T10:58:57.855Z,6.00
2023-01-10T11:01:26.652Z,6.00
2023-01-10T11:04:00.367Z,6.00
2023-01-10T11:06:29.680Z,6.00
2023-01-10T11:09:00.163Z,6.00
2023-01-10T11:11:37.640Z,6.00
2023-01-10T11:14:06.801Z,6.10
2023-01-10T11:16:38.978Z,6.10
2023-01-10T11:19:19.141Z,6.10
2023-01-10T11:21:56.287Z,6.20
2023-01-10T11:24:30.852Z,6.20
2023-01-10T11:27:01.201Z,6.20
2023-01-10T11:29:32.281Z,6.20
2023-01-10T11:32:07.694Z,6.30
2023-01-10T11:34:36.632Z,6.30
2023-01-10T11:37:17.343Z,6.30
2023-01-10T11:39:44.650Z,6.40
2023-01-10T11:42:40.885Z,6.40
2023-01-10T11:45:20.034Z,6.40
2023-01-10T11:47:54.524Z,6.50
2023-01-10T11:50:25.164Z,6.50
2023-01-10T11:52:52.534Z,6.60
2023-01-10T11:55:30.595Z,6.60
2023-01-10T11:58:08.343Z,6.70
2023-01-10T12:00:41.574Z,6.70
2023-01-10T12:03:29.058Z,6.80
2023-01-10T12:06:14.972Z,6.80
2023-01-10T12:08:45.052Z,6.70
2023-01-10T12:11:30.811Z,6.70
2023-01-10T12:14:00.158Z,6.70
2023-01-10T12:16:34.821Z,6.60
2023-01-10T12:19:04.824Z,6.60
2023-01-10T12:21:40.299Z,6.60
2023-01-10T12:24:22.761Z,6.60
2023-01-10T12:26:51.999Z,6.60
2023-01-10T12:29:23.889Z,6.50
2023-01-10T12:31:53.849Z,6.50
2023-01-10T12:34:24.009Z,6.40
2023-01-10T12:37:05.286Z,6.40
2023-01-10T12:39:37.166Z,6.40
2023-01-10T12:42:28.650Z,6.40
2023-01-10T12:45:07.668Z,6.40
2023-01-10T12:48:02.520Z,6.40
2023-01-10T12:50:40.912Z,6.40
2023-01-10T12:53:13.811Z,6.50
2023-01-10T12:55:43.836Z,6.50
2023-01-10T12:58:23.876Z,6.50
2023-01-10T13:00:54.846Z,6.60
2023-01-10T13:03:26.573Z,6.70
2023-01-10T13:05:54.387Z,6.70
2023-01-10T13:08:35.884Z,6.80
2023-01-10T13:11:03.721Z,6.80
2023-01-10T13:13:36.616Z,6.80
2023-01-10T13:16:22.044Z,6.80
2023-01-10T13:19:10.445Z,6.80
2023-01-10T13:21:39.744Z,6.80
2023-01-10T13:24:16.041Z,6.80
2023-01-10T13:26:54.293Z,6.80
2023-01-10T13:29:43.095Z,6.80
2023-01-10T13:32:23.454Z,6.80
2023-01-10T13:34:50.606Z,6.80
2023-01-10T13:37:25.500Z,6.80
2023-01-10T13:39:56.038Z,6.80
2023-01-10T13:42:49.184Z,6.90
2023-01-10T13:45:19.319Z,6.80
2023-01-10T13:47:47.208Z,6.80
2023-01-10T13:50:22.972Z,6.90
2023-01-10T13:52:50.978Z,6.80
2023-01-10T13:55:53.314Z,6.80
2023-01-10T13:58:45.672Z,6.80
2023-01-10T14:01:57.139Z,6.80
2023-01-10T14:04:34.285Z,6.80
2023-01-10T14:07:12.791Z,6.80
2023-01-10T14:09:44.830Z,6.80
2023-01-10T14:12:39.631Z,6.80
2023-01-10T14:15:21.510Z,6.80
2023-01-10T14:18:15.453Z,6.70
2023-01-10T14:20:43.412Z,6.70
2023-01-10T14:23:16.252Z,6.70
2023-01-10T14:25:45.131Z,6.70
2023-01-10T14:28:27.727Z,6.60
2023-01-10T14:31:13.503Z,6.60
2023-01-10T14:33:43.574Z,6.60
2023-01-10T14:36:17.038Z,6.50
2023-01-10T14:38:46.600Z,6.50
2023-01-10T14:41:44.464Z,6.50
2023-01-10T14:44:16.994Z,6.50
2023-01-10T14:46:48.470Z,6.50
2023-01-10T14:49:30.624Z,6.50
2023-01-10T14:52:24.222Z,6.40
2023-01-10T14:55:17.449Z,6.40
2023-01-10T14:58:01.168Z,6.30
2023-01-10T15:00:33.716Z,6.30
2023-01-10T15:03:03.978Z,6.30
2023-01-10T15:05:36.672Z,6.30
2023-01-10T15:08:21.948Z,6.20
2023-01-10T15:10:51.933Z,6.20
2023-01-10T15:13:22.278Z,6.20
2023-01-10T15:15:50.272Z,6.20
2023-01-10T15:18:27.255Z,6.10
2023-01-10T15:20:54.641Z,6.10
2023-01-10T15:23:21.547Z,6.10
2023-01-10T15:25:58.021Z,6.10
2023-01-10T15:28:25.875Z,6.00
2023-01-10T15:30:53.479Z,6.00
2023-01-10T15:33:26.808Z,6.00
2023-01-10T15:35:53.999Z,6.00
2023-01-10T15:38:26.484Z,6.00
2023-01-10T15:41:01.830Z,6.00
2023-01-10T15:43:30.862Z,5.90
2023-01-10T15:45:59.907Z,5.90
2023-01-10T15:48:41.030Z,5.90
2023-01-10T15:51:20.656Z,5.80
2023-01-10T15:53:51.814Z,5.80
2023-01-10T15:56:47.366Z,5.80
2023-01-10T15:59:28.943Z,5.80
2023-01-10T16:02:22.619Z,5.80
2023-01-10T16:04:52.549Z,5.70
2023-01-10T16:07:32.745Z,5.70
2023-01-10T16:10:06.392Z,5.70
2023-01-10T16:12:55.426Z,5.60
2023-01-10T16:15:25.136Z,5.60
2023-01-10T16:17:52.736Z,5.50
2023-01-10T16:20:22.285Z,5.50
2023-01-10T16:22:50.162Z,5.50
2023-01-10T16:25:31.907Z,5.50
2023-01-10T16:27:59.565Z,5.50
2023-01-10T16:30:32.528Z,5.40
2023-01-10T16:33:00.192Z,5.50
2023-01-10T16:35:27.368Z,5.50
2023-01-10T16:37:57.526Z,5.40
2023-01-10T16:40:34.961Z,5.40
2023-01-10T16:43:17.912Z,5.40
2023-01-10T16:45:49.114Z,5.40
2023-01-10T16:48:17.911Z,5.50
2023-01-10T16:50:45.837Z,5.50
2023-01-10T16:53:14.412Z,5.50
2023-01-10T16:55:52.330Z,5.50
2023-01-10T16:58:20.498Z,5.50
2023-01-10T17:00:50.804Z,5.50
2023-01-10T17:03:22.659Z,5.50
2023-01-10T17:05:49.697Z,5.50
2023-01-10T17:08:24.591Z,5.50
2023-01-10T17:10:56.546Z,5.50
2023-01-10T17:13:33.005Z,5.50
2023-01-10T17:16:00.242Z,5.50
2023-01-10T17:18:28.697Z,5.50
2023-01-10T17:20:57.356Z,5.50
2023-01-10T17:23:25.944Z,5.50
2023-01-10T17:26:00.290Z,5.50
2023-01-10T17:28:28.812Z,5.50
2023-01-10T17:30:56.334Z,5.50
2023-01-10T17:33:24.299Z,5.40
2023-01-10T17:35:55.076Z,5.50
2023-01-10T17:38:22.708Z,5.40
2023-01-10T17:40:49.821Z,5.40
2023-01-10T17:43:19.018Z,5.40
2023-01-10T17:45:48.323Z,5.50
2023-01-10T17:48:17.350Z,5.40
2023-01-10T17:50:45.864Z,5.40
2023-01-10T17:53:13.656Z,5.40
2023-01-10T17:55:47.711Z,5.40
2023-01-10T17:58:15.061Z,5.50
2023-01-10T18:00:42.269Z,5.50
2023-01-10T18:03:09.682Z,5.40
2023-01-10T18:05:36.569Z,5.40
2023-01-10T18:08:05.561Z,5.40
2023-01-10T18:10:33.620Z,5.40
2023-01-10T18:13:03.173Z,5.40
2023-01-10T18:15:30.368Z,5.40
2023-01-10T18:17:58.041Z,5.40
2023-01-10T18:20:24.901Z,5.40
2023-01-10T18:23:10.203Z,5.40
2023-01-10T18:25:36.986Z,5.40
2023-01-10T18:28:03.896Z,5.40
2023-01-10T18:30:30.809Z,5.40
2023-01-10T18:32:57.625Z,5.40
2023-01-10T18:35:25.676Z,5.40
2023-01-10T18:37:52.490Z,5.40
2023-01-10T18:40:19.326Z,5.40
2023-01-10T18:42:51.247Z,5.40
2023-01-10T18:45:18.140Z,5.40
2023-01-10T18:47:44.918Z,5.40
2023-01-10T18:50:11.761Z,5.40
2023-01-10T18:52:38.583Z,5.40
2023-01-10T18:55:08.135Z,5.40
2023-01-10T18:57:35.000Z,5.40
2023-01-10T19:00:02.112Z,5.40
2023-01-10T19:02:28.968Z,5.40
2023-01-10T19:04:55.809Z,5.40
2023-01-10T19:07:22.567Z,5.40
2023-01-10T19:09:50.410Z,5.40
2023-01-10T19:12:17.221Z,5.50
2023-01-10T19:14:43.975Z,5.40
2023-01-10T19:17:10.747Z,5.50
2023-01-10T19:19:37.564Z,5.50
2023-01-10T19:22:04.445Z,5.50
2023-01-10T19:24:35.002Z,5.50
2023-01-10T19:27:01.883Z,5.50
2023-01-10T19:29:30.606Z,5.50
2023-01-10T19:31:58.429Z,5.50
2023-01-10T19:34:25.300Z,5.50
2023-01-10T19:36:52.261Z,5.60
2023-01-10T19:39:19.126Z,5.50
2023-01-10T19:41:45.890Z,5.60
2023-01-10T19:44:15.344Z,5.50
2023-01-10T19:46:44.077Z,5.50
2023-01-10T19:49:17.357Z,5.60
2023-01-10T19:51:47.717Z,5.60
2023-01-10T19:54:14.629Z,5.60
2023-01-10T19:56:41.447Z,5.60
2023-01-10T19:59:08.513Z,5.60
2023-01-10T20:01:35.673Z,5.60
2023-01-10T20:04:04.025Z,5.60
2023-01-10T20:06:34.978Z,5.60
2023-01-10T20:09:01.946Z,5.60
2023-01-10T20:11:38.261Z,5.60
2023-01-10T20:14:16.627Z,5.60
2023-01-10T20:16:43.940Z,5.60
2023-01-10T20:19:12.184Z,5.60
2023-01-10T20:21:40.562Z,5.60
2023-01-10T20:24:18.802Z,5.60
2023-01-10T20:26:47.508Z,5.60
2023-01-10T20:29:15.192Z,5.60
2023-01-10T20:31:52.762Z,5.60
2023-01-10T20:34:21.816Z,5.60
2023-01-10T20:36:52.325Z,5.60
2023-01-10T20:39:19.599Z,5.60
2023-01-10T20:41:46.449Z,5.60
2023-01-10T20:44:13.271Z,5.60
2023-01-10T20:46:40.243Z,5.70
2023-01-10T20:49:07.181Z,5.60
2023-01-10T20:51:37.722Z,5.70
2023-01-10T20:54:08.111Z,5.70
2023-01-10T20:56:35.748Z,5.70
2023-01-10T20:59:03.573Z,5.70
2023-01-10T21:01:35.501Z,5.70
2023-01-10T21:04:06.956Z,5.70
2023-01-10T21:06:35.337Z,5.70
2023-01-10T21:09:03.500Z,5.70
2023-01-10T21:11:30.252Z,5.70
2023-01-10T21:13:57.195Z,5.70
2023-01-10T21:16:25.280Z,5.70
2023-01-10T21:18:52.303Z,5.70
2023-01-10T21:21:22.597Z,5.70
2023-01-10T21:23:49.729Z,5.70
2023-01-10T21:26:16.652Z,5.70
2023-01-10T21:28:48.294Z,5.70
2023-01-10T21:31:18.654Z,5.70
2023-01-10T21:33:45.481Z,5.70
2023-01-10T21:36:13.511Z,5.70
2023-01-10T21:38:41.014Z,5.70
2023-01-10T21:41:39.308Z,5.70
2023-01-10T21:44:07.516Z,5.70
2023-01-10T21:46:34.685Z,5.70
2023-01-10T21:49:02.278Z,5.70
2023-01-10T21:51:29.104Z,5.70
2023-01-10T21:53:55.936Z,5.70
2023-01-10T21:56:22.790Z,5.70
2023-01-10T21:58:49.555Z,5.70
2023-01-10T22:01:16.628Z,5.80
2023-01-10T22:03:45.581Z,5.80
2023-01-10T22:06:12.713Z,5.80
2023-01-10T22:08:39.542Z,5.80
2023-01-10T22:11:06.704Z,5.80
2023-01-10T22:13:33.990Z,5.80
2023-01-10T22:16:01.900Z,5.80
2023-01-10T22:18:29.950Z,5.80
2023-01-10T22:20:57.632Z,5.80
2023-01-10T22:23:24.985Z,5.90
2023-01-10T22:26:02.313Z,5.90
2023-01-10T22:28:29.476Z,5.90
2023-01-10T22:30:56.858Z,5.90
2023-01-10T22:33:24.629Z,5.90
2023-01-10T22:35:51.471Z,5.90
2023-01-10T22:38:18.363Z,6.00
2023-01-10T22:40:45.313Z,6.00
2023-01-10T22:43:12.577Z,6.00
2023-01-10T22:45:43.272Z,6.00
2023-01-10T22:48:10.704Z,6.00
2023-01-10T22:50:37.648Z,6.00
2023-01-10T22:53:04.526Z,6.00
2023-01-10T22:55:33.739Z,6.00
2023-01-10T22:58:00.514Z,6.00
2023-01-10T23:00:27.572Z,6.00
2023-01-10T23:02:54.361Z,6.00
2023-01-10T23:05:21.191Z,6.00
2023-01-10T23:07:49.922Z,6.00
2023-01-10T23:10:29.090Z,6.00
2023-01-10T23:12:57.874Z,6.00
2023-01-10T23:15:24.942Z,6.00
2023-01-10T23:17:51.710Z,6.00
2023-01-10T23:20:18.672Z,6.00
2023-01-10T23:22:45.518Z,6.00
2023-01-10T23:25:12.315Z,6.00
2023-01-10T23:27:39.787Z,6.00
2023-01-10T23:30:09.298Z,6.00
2023-01-10T23:32:36.660Z,6.00
2023-01-10T23:35:04.389Z,6.00
2023-01-10T23:37:31.159Z,6.00
2023-01-10T23:39:57.942Z,6.10
2023-01-10T23:42:24.666Z,6.10
2023-01-10T23:44:51.457Z,6.10
2023-01-10T23:47:18.321Z,6.10
2023-01-10T23:49:45.138Z,6.10
2023-01-10T23:52:12.205Z,6.10
2023-01-10T23:54:39.608Z,6.10
2023-01-10T23:57:06.479Z,6.10
2023-01-10T23:59:33.422Z,6.20
